Pagrindinis puslapis
METAR-TAF:

METAR-TAF

Oro uostai :

Belgradas, Serbija

platuma: 44-49N, ilguma: 020-17E, Aukštis: 96 m

Dabartinis oras

Ataskaita buvo paskelbta 31 minutes, ne 04:30 UTC
Vėjas 4 kt iš Vakarų
Temperatūra -1°C
Drėgmė 86%
Slėgis 1030 hPa
Matomumas 10 km arba daugiau
nėra debesų žemiau 1500 m ir nėra kamuolinių lietaus debesų

METAR: LYBE 220430Z 27004KT CAVOK M01/M03 Q1030 NOSIG

Laikas: 06:01 (05:01 UTC)

Prognozė

Ataskaita buvo paskelbta 6 valandos ir 1 minutes, ne 23:00 UTC
Prognozė galioja nuo 22 metu 00 UTC su 22 metu 24 UTC
Vėjas 8 kt iš Šiaurės Vakarų
Matomumas 10 km arba daugiau
nėra debesų žemiau 1500 m ir nėra kamuolinių lietaus debesų

TAF: LYBE 212300Z 2200/2224 31008KT CAVOK TX08/2213Z TNM01/2206Z

Orai ataskaitas ir orų prognozės (METAR, TAF).

turimą stotys yra geltonos ir raudonos taškus žemėlapyje.

Perkelti pele per norėdami pamatyti stoties vardą.

Tada spustelėkite, norėdami matyti oro stebėjimo ir prognozės.

Norėdami pakeisti žemėlapį: spustelėkite ant žalios mygtukų su juodo kryžiaus žemyn,; žalią mygtuką su brūkšneliu, jei norite nutolinti; arba žalių rodyklių gretimoms žemėlapius.


METAR-TAF: